sensor_id;sensor_type;location;lat;lon;timestamp;pressure;altitude;pressure_sealevel;temperature;humidity
113;BME280;45999;48.808;9.182;2024-02-15T00:00:53;98552.22;;;11.44;nan
113;BME280;45999;48.808;9.182;2024-02-15T00:03:19;98557.97;;;11.41;nan
113;BME280;45999;48.808;9.182;2024-02-15T00:05:46;98553.84;;;11.45;nan
113;BME280;45999;48.808;9.182;2024-02-15T00:08:13;98549.75;;;11.49;nan
113;BME280;45999;48.808;9.182;2024-02-15T00:10:40;98543.16;;;11.51;nan
113;BME280;45999;48.808;9.182;2024-02-15T00:13:06;98550.97;;;11.46;nan
113;BME280;45999;48.808;9.182;2024-02-15T00:15:33;98550.59;;;11.43;nan
113;BME280;45999;48.808;9.182;2024-02-15T00:18:00;98555.88;;;11.49;nan
113;BME280;45999;48.808;9.182;2024-02-15T00:20:28;98550.53;;;11.49;nan
113;BME280;45999;48.808;9.182;2024-02-15T00:22:54;98543.16;;;11.51;nan
113;BME280;45999;48.808;9.182;2024-02-15T00:25:21;98551.56;;;11.48;nan
113;BME280;45999;48.808;9.182;2024-02-15T00:27:48;98548.50;;;11.51;nan
113;BME280;45999;48.808;9.182;2024-02-15T00:30:14;98551.75;;;11.53;nan
113;BME280;45999;48.808;9.182;2024-02-15T00:32:41;98545.84;;;11.51;nan
113;BME280;45999;48.808;9.182;2024-02-15T00:35:10;98548.28;;;11.53;nan
113;BME280;45999;48.808;9.182;2024-02-15T00:37:37;98541.97;;;11.47;nan
113;BME280;45999;48.808;9.182;2024-02-15T00:40:03;98551.78;;;11.47;nan
113;BME280;45999;48.808;9.182;2024-02-15T00:42:30;98547.09;;;11.42;nan
113;BME280;45999;48.808;9.182;2024-02-15T00:44:58;98540.94;;;11.48;nan
113;BME280;45999;48.808;9.182;2024-02-15T00:47:24;98535.84;;;11.40;nan
113;BME280;45999;48.808;9.182;2024-02-15T00:49:51;98537.91;;;11.38;nan
113;BME280;45999;48.808;9.182;2024-02-15T00:52:17;98537.91;;;11.38;nan
113;BME280;45999;48.808;9.182;2024-02-15T00:54:45;98541.41;;;11.39;nan
113;BME280;45999;48.808;9.182;2024-02-15T00:57:11;98540.41;;;11.27;nan
113;BME280;45999;48.808;9.182;2024-02-15T00:59:37;98528.16;;;11.26;nan
113;BME280;45999;48.808;9.182;2024-02-15T01:02:04;98541.66;;;11.24;nan
113;BME280;45999;48.808;9.182;2024-02-15T01:04:31;98536.16;;;11.19;nan
113;BME280;45999;48.808;9.182;2024-02-15T01:06:57;98527.78;;;11.16;nan
113;BME280;45999;48.808;9.182;2024-02-15T01:09:24;98524.88;;;11.17;nan
113;BME280;45999;48.808;9.182;2024-02-15T01:11:50;98530.44;;;11.16;nan
113;BME280;45999;48.808;9.182;2024-02-15T01:14:17;98522.63;;;11.27;nan
113;BME280;45999;48.808;9.182;2024-02-15T01:16:44;98525.31;;;11.21;nan
113;BME280;45999;48.808;9.182;2024-02-15T01:19:10;98524.47;;;11.20;nan
113;BME280;45999;48.808;9.182;2024-02-15T01:21:37;98518.53;;;11.25;nan
113;BME280;45999;48.808;9.182;2024-02-15T01:24:04;98525.31;;;11.21;nan
113;BME280;45999;48.808;9.182;2024-02-15T01:26:32;98522.84;;;11.19;nan
113;BME280;45999;48.808;9.182;2024-02-15T01:28:58;98520.41;;;11.18;nan
113;BME280;45999;48.808;9.182;2024-02-15T01:31:24;98513.25;;;11.12;nan
113;BME280;45999;48.808;9.182;2024-02-15T01:33:51;98520.06;;;11.01;nan
113;BME280;45999;48.808;9.182;2024-02-15T01:36:17;98516.34;;;11.02;nan
113;BME280;45999;48.808;9.182;2024-02-15T01:38:44;98517.41;;;11.01;nan
113;BME280;45999;48.808;9.182;2024-02-15T01:41:11;98513.53;;;10.97;nan
113;BME280;45999;48.808;9.182;2024-02-15T01:43:37;98513.72;;;10.95;nan
113;BME280;45999;48.808;9.182;2024-02-15T01:46:09;98520.66;;;10.96;nan
113;BME280;45999;48.808;9.182;2024-02-15T01:48:37;98520.84;;;11.01;nan
113;BME280;45999;48.808;9.182;2024-02-15T01:51:07;98525.41;;;10.94;nan
113;BME280;45999;48.808;9.182;2024-02-15T01:53:33;98520.25;;;10.99;nan
113;BME280;45999;48.808;9.182;2024-02-15T01:56:00;98518.25;;;10.95;nan
113;BME280;45999;48.808;9.182;2024-02-15T01:58:27;98519.06;;;10.89;nan
113;BME280;45999;48.808;9.182;2024-02-15T02:00:56;98517.66;;;10.80;nan
113;BME280;45999;48.808;9.182;2024-02-15T02:03:23;98520.50;;;10.78;nan
113;BME280;45999;48.808;9.182;2024-02-15T02:05:49;98521.75;;;10.76;nan
113;BME280;45999;48.808;9.182;2024-02-15T02:08:16;98520.31;;;10.80;nan
113;BME280;45999;48.808;9.182;2024-02-15T02:10:42;98517.25;;;10.83;nan
113;BME280;45999;48.808;9.182;2024-02-15T02:13:10;98511.75;;;10.78;nan
113;BME280;45999;48.808;9.182;2024-02-15T02:15:37;98515.63;;;10.82;nan
113;BME280;45999;48.808;9.182;2024-02-15T02:18:04;98519.94;;;10.76;nan
113;BME280;45999;48.808;9.182;2024-02-15T02:20:32;98510.72;;;10.79;nan
113;BME280;45999;48.808;9.182;2024-02-15T02:23:15;98511.75;;;10.78;nan
113;BME280;45999;48.808;9.182;2024-02-15T02:25:44;98504.78;;;10.77;nan
113;BME280;45999;48.808;9.182;2024-02-15T02:28:11;98507.47;;;10.77;nan
113;BME280;45999;48.808;9.182;2024-02-15T02:30:38;98509.91;;;10.72;nan
113;BME280;45999;48.808;9.182;2024-02-15T02:33:13;98505.78;;;10.76;nan
113;BME280;45999;48.808;9.182;2024-02-15T02:35:44;98508.06;;;10.79;nan
113;BME280;45999;48.808;9.182;2024-02-15T02:38:11;98513.19;;;10.74;nan
113;BME280;45999;48.808;9.182;2024-02-15T02:40:37;98513.59;;;10.71;nan
113;BME280;45999;48.808;9.182;2024-02-15T02:43:03;98516.69;;;10.68;nan
113;BME280;45999;48.808;9.182;2024-02-15T02:45:30;98515.84;;;10.67;nan
113;BME280;45999;48.808;9.182;2024-02-15T02:47:56;98515.00;;;10.73;nan
113;BME280;45999;48.808;9.182;2024-02-15T02:50:23;98511.97;;;10.70;nan
113;BME280;45999;48.808;9.182;2024-02-15T02:52:50;98507.03;;;10.67;nan
113;BME280;45999;48.808;9.182;2024-02-15T02:55:17;98508.47;;;10.69;nan
113;BME280;45999;48.808;9.182;2024-02-15T02:57:43;98505.44;;;10.59;nan
113;BME280;45999;48.808;9.182;2024-02-15T03:00:11;98506.47;;;10.65;nan
113;BME280;45999;48.808;9.182;2024-02-15T03:02:42;98506.84;;;10.62;nan
113;BME280;45999;48.808;9.182;2024-02-15T03:05:09;98505.44;;;10.53;nan
113;BME280;45999;48.808;9.182;2024-02-15T03:07:36;98504.22;;;10.42;nan
113;BME280;45999;48.808;9.182;2024-02-15T03:10:04;98512.81;;;10.51;nan
113;BME280;45999;48.808;9.182;2024-02-15T03:12:33;98504.88;;;10.38;nan
113;BME280;45999;48.808;9.182;2024-02-15T03:15:02;98502.41;;;10.36;nan
113;BME280;45999;48.808;9.182;2024-02-15T03:17:28;98501.44;;;10.18;nan
113;BME280;45999;48.808;9.182;2024-02-15T03:19:57;98504.09;;;10.05;nan
113;BME280;45999;48.808;9.182;2024-02-15T03:22:24;98506.50;;;9.87;nan
113;BME280;45999;48.808;9.182;2024-02-15T03:24:51;98503.84;;;9.87;nan
113;BME280;45999;48.808;9.182;2024-02-15T03:27:19;98504.63;;;9.81;nan
113;BME280;45999;48.808;9.182;2024-02-15T03:29:48;98503.81;;;9.67;nan
113;BME280;45999;48.808;9.182;2024-02-15T03:32:14;98510.75;;;9.62;nan
113;BME280;45999;48.808;9.182;2024-02-15T03:34:41;98515.22;;;9.48;nan
113;BME280;45999;48.808;9.182;2024-02-15T03:37:07;98506.19;;;9.36;nan
113;BME280;45999;48.808;9.182;2024-02-15T03:39:34;98507.03;;;9.37;nan
113;BME280;45999;48.808;9.182;2024-02-15T03:42:01;98504.38;;;9.43;nan
113;BME280;45999;48.808;9.182;2024-02-15T03:44:28;98507.81;;;9.37;nan
113;BME280;45999;48.808;9.182;2024-02-15T03:46:56;98505.78;;;9.33;nan
113;BME280;45999;48.808;9.182;2024-02-15T03:49:24;98503.53;;;9.30;nan
113;BME280;45999;48.808;9.182;2024-02-15T03:51:50;98500.44;;;9.20;nan
113;BME280;45999;48.808;9.182;2024-02-15T03:54:16;98507.78;;;9.24;nan
113;BME280;45999;48.808;9.182;2024-02-15T03:56:47;98512.72;;;9.34;nan
113;BME280;45999;48.808;9.182;2024-02-15T03:59:18;98511.72;;;9.41;nan
113;BME280;45999;48.808;9.182;2024-02-15T04:01:54;98516.00;;;9.42;nan
113;BME280;45999;48.808;9.182;2024-02-15T04:04:21;98506.81;;;9.45;nan
113;BME280;45999;48.808;9.182;2024-02-15T04:06:51;98512.38;;;9.50;nan
113;BME280;45999;48.808;9.182;2024-02-15T04:09:18;98517.44;;;9.51;nan
113;BME280;45999;48.808;9.182;2024-02-15T04:11:46;98520.13;;;9.58;nan
113;BME280;45999;48.808;9.182;2024-02-15T04:14:18;98517.06;;;9.61;nan
113;BME280;45999;48.808;9.182;2024-02-15T04:16:44;98518.50;;;9.57;nan
113;BME280;45999;48.808;9.182;2024-02-15T04:19:11;98510.13;;;9.60;nan
113;BME280;45999;48.808;9.182;2024-02-15T04:21:37;98509.72;;;9.63;nan
113;BME280;45999;48.808;9.182;2024-02-15T04:24:05;98515.88;;;9.70;nan
113;BME280;45999;48.808;9.182;2024-02-15T04:26:32;98508.75;;;9.77;nan
113;BME280;45999;48.808;9.182;2024-02-15T04:28:58;98517.09;;;9.80;nan
113;BME280;45999;48.808;9.182;2024-02-15T04:31:25;98507.09;;;9.76;nan
113;BME280;45999;48.808;9.182;2024-02-15T04:33:53;98511.78;;;9.74;nan
113;BME280;45999;48.808;9.182;2024-02-15T04:36:20;98506.88;;;9.71;nan
113;BME280;45999;48.808;9.182;2024-02-15T04:38:49;98521.38;;;9.75;nan
113;BME280;45999;48.808;9.182;2024-02-15T04:41:17;98511.81;;;9.87;nan
113;BME280;45999;48.808;9.182;2024-02-15T04:43:48;98517.13;;;9.87;nan
113;BME280;45999;48.808;9.182;2024-02-15T04:46:14;98509.16;;;9.87;nan
113;BME280;45999;48.808;9.182;2024-02-15T04:48:41;98505.88;;;9.85;nan
113;BME280;45999;48.808;9.182;2024-02-15T04:51:09;98503.84;;;9.87;nan
113;BME280;45999;48.808;9.182;2024-02-15T04:53:36;98501.19;;;9.93;nan
113;BME280;45999;48.808;9.182;2024-02-15T04:56:04;98512.00;;;9.92;nan
113;BME280;45999;48.808;9.182;2024-02-15T04:58:37;98499.31;;;9.81;nan
113;BME280;45999;48.808;9.182;2024-02-15T05:01:11;98499.97;;;9.89;nan
113;BME280;45999;48.808;9.182;2024-02-15T05:03:38;98491.59;;;9.86;nan
113;BME280;45999;48.808;9.182;2024-02-15T05:06:04;98492.59;;;9.85;nan
113;BME280;45999;48.808;9.182;2024-02-15T05:08:30;98496.06;;;9.85;nan
113;BME280;45999;48.808;9.182;2024-02-15T05:10:57;98497.31;;;9.89;nan
113;BME280;45999;48.808;9.182;2024-02-15T05:13:24;98494.00;;;9.87;nan
113;BME280;45999;48.808;9.182;2024-02-15T05:15:51;98493.03;;;9.88;nan
113;BME280;45999;48.808;9.182;2024-02-15T05:18:17;98500.97;;;9.82;nan
113;BME280;45999;48.808;9.182;2024-02-15T05:20:43;98502.22;;;9.86;nan
113;BME280;45999;48.808;9.182;2024-02-15T05:23:10;98499.13;;;9.95;nan
113;BME280;45999;48.808;9.182;2024-02-15T05:25:37;98489.94;;;9.91;nan
113;BME280;45999;48.808;9.182;2024-02-15T05:28:03;98495.44;;;9.90;nan
113;BME280;45999;48.808;9.182;2024-02-15T05:30:31;98492.78;;;9.83;nan
113;BME280;45999;48.808;9.182;2024-02-15T05:32:58;98485.84;;;9.82;nan
113;BME280;45999;48.808;9.182;2024-02-15T05:35:25;98489.94;;;9.78;nan
113;BME280;45999;48.808;9.182;2024-02-15T05:37:53;98475.66;;;9.73;nan
113;BME280;45999;48.808;9.182;2024-02-15T05:40:19;98482.38;;;9.75;nan
113;BME280;45999;48.808;9.182;2024-02-15T05:42:45;98474.81;;;9.79;nan
113;BME280;45999;48.808;9.182;2024-02-15T05:45:28;98478.31;;;9.73;nan
113;BME280;45999;48.808;9.182;2024-02-15T05:47:58;98476.06;;;9.76;nan
113;BME280;45999;48.808;9.182;2024-02-15T05:50:25;98469.53;;;9.92;nan
113;BME280;45999;48.808;9.182;2024-02-15T05:52:54;98478.75;;;10.15;nan
113;BME280;45999;48.808;9.182;2024-02-15T05:55:21;98476.03;;;10.35;nan
113;BME280;45999;48.808;9.182;2024-02-15T05:57:48;98483.41;;;10.46;nan
113;BME280;45999;48.808;9.182;2024-02-15T06:00:14;98480.09;;;10.50;nan
113;BME280;45999;48.808;9.182;2024-02-15T06:02:44;98478.66;;;10.48;nan
113;BME280;45999;48.808;9.182;2024-02-15T06:05:10;98482.16;;;10.48;nan
113;BME280;45999;48.808;9.182;2024-02-15T06:07:37;98480.09;;;10.50;nan
113;BME280;45999;48.808;9.182;2024-02-15T06:10:05;98487.09;;;10.45;nan
113;BME280;45999;48.808;9.182;2024-02-15T06:12:32;98476.03;;;10.35;nan
113;BME280;45999;48.808;9.182;2024-02-15T06:14:59;98487.09;;;10.45;nan
113;BME280;45999;48.808;9.182;2024-02-15T06:17:25;98485.03;;;10.34;nan
113;BME280;45999;48.808;9.182;2024-02-15T06:19:51;98483.22;;;10.15;nan
113;BME280;45999;48.808;9.182;2024-02-15T06:22:18;98480.19;;;10.11;nan
113;BME280;45999;48.808;9.182;2024-02-15T06:24:44;98482.59;;;9.93;nan
113;BME280;45999;48.808;9.182;2024-02-15T06:27:10;98486.47;;;9.84;nan
113;BME280;45999;48.808;9.182;2024-02-15T06:29:38;98485.66;;;9.84;nan
113;BME280;45999;48.808;9.182;2024-02-15T06:32:21;98481.56;;;9.75;nan
113;BME280;45999;48.808;9.182;2024-02-15T06:35:06;98491.97;;;9.76;nan
113;BME280;45999;48.808;9.182;2024-02-15T06:37:49;98483.38;;;9.74;nan
113;BME280;45999;48.808;9.182;2024-02-15T06:40:33;98480.72;;;9.74;nan
113;BME280;45999;48.808;9.182;2024-02-15T06:43:01;98486.84;;;9.68;nan
113;BME280;45999;48.808;9.182;2024-02-15T06:45:28;98482.56;;;9.67;nan
113;BME280;45999;48.808;9.182;2024-02-15T06:47:57;98483.81;;;9.71;nan
113;BME280;45999;48.808;9.182;2024-02-15T06:50:23;98482.19;;;9.77;nan
113;BME280;45999;48.808;9.182;2024-02-15T06:52:51;98478.91;;;9.88;nan
113;BME280;45999;48.808;9.182;2024-02-15T06:55:18;98484.63;;;9.85;nan
113;BME280;45999;48.808;9.182;2024-02-15T06:57:47;98488.91;;;9.92;nan
113;BME280;45999;48.808;9.182;2024-02-15T07:00:13;98480.75;;;9.87;nan
113;BME280;45999;48.808;9.182;2024-02-15T07:02:41;98490.38;;;9.88;nan
113;BME280;45999;48.808;9.182;2024-02-15T07:05:09;98480.34;;;9.84;nan
113;BME280;45999;48.808;9.182;2024-02-15T07:07:36;98487.91;;;9.87;nan
113;BME280;45999;48.808;9.182;2024-02-15T07:10:04;98484.03;;;9.83;nan
113;BME280;45999;48.808;9.182;2024-02-15T07:12:31;98484.41;;;9.80;nan
113;BME280;45999;48.808;9.182;2024-02-15T07:14:57;98487.47;;;9.83;nan
113;BME280;45999;48.808;9.182;2024-02-15T07:17:26;98492.56;;;9.78;nan
113;BME280;45999;48.808;9.182;2024-02-15T07:19:52;98496.28;;;10.03;nan
113;BME280;45999;48.808;9.182;2024-02-15T07:22:19;98492.44;;;10.19;nan
113;BME280;45999;48.808;9.182;2024-02-15T07:24:45;98488.53;;;10.28;nan
113;BME280;45999;48.808;9.182;2024-02-15T07:27:11;98477.25;;;10.32;nan
113;BME280;45999;48.808;9.182;2024-02-15T07:29:38;98479.53;;;10.35;nan
113;BME280;45999;48.808;9.182;2024-02-15T07:32:04;98479.50;;;10.42;nan
113;BME280;45999;48.808;9.182;2024-02-15T07:34:31;98475.41;;;10.46;nan
113;BME280;45999;48.808;9.182;2024-02-15T07:36:58;98477.63;;;10.55;nan
113;BME280;45999;48.808;9.182;2024-02-15T07:39:25;98467.59;;;10.64;nan
113;BME280;45999;48.808;9.182;2024-02-15T07:41:56;98466.56;;;10.71;nan
113;BME280;45999;48.808;9.182;2024-02-15T07:44:23;98468.97;;;10.86;nan
113;BME280;45999;48.808;9.182;2024-02-15T07:46:50;98472.22;;;10.88;nan
113;BME280;45999;48.808;9.182;2024-02-15T07:49:17;98468.53;;;10.89;nan
113;BME280;45999;48.808;9.182;2024-02-15T07:51:44;98463.41;;;10.87;nan
113;BME280;45999;48.808;9.182;2024-02-15T07:54:10;98464.78;;;11.03;nan
113;BME280;45999;48.808;9.182;2024-02-15T07:56:37;98464.91;;;11.14;nan
113;BME280;45999;48.808;9.182;2024-02-15T07:59:03;98463.50;;;11.12;nan
113;BME280;45999;48.808;9.182;2024-02-15T08:01:30;98454.56;;;11.07;nan
113;BME280;45999;48.808;9.182;2024-02-15T08:03:56;98455.34;;;11.07;nan
113;BME280;45999;48.808;9.182;2024-02-15T08:06:23;98455.72;;;11.10;nan
113;BME280;45999;48.808;9.182;2024-02-15T08:08:53;98456.59;;;11.04;nan
113;BME280;45999;48.808;9.182;2024-02-15T08:11:20;98452.16;;;10.92;nan
113;BME280;45999;48.808;9.182;2024-02-15T08:13:50;98443.09;;;10.99;nan
113;BME280;45999;48.808;9.182;2024-02-15T08:16:20;98448.06;;;10.89;nan
113;BME280;45999;48.808;9.182;2024-02-15T08:18:48;98436.59;;;10.89;nan
113;BME280;45999;48.808;9.182;2024-02-15T08:21:17;98438.91;;;10.79;nan
113;BME280;45999;48.808;9.182;2024-02-15T08:23:44;98431.50;;;10.87;nan
113;BME280;45999;48.808;9.182;2024-02-15T08:26:10;98440.69;;;10.91;nan
113;BME280;45999;48.808;9.182;2024-02-15T08:28:37;98446.41;;;10.95;nan
113;BME280;45999;48.808;9.182;2024-02-15T08:31:03;98445.59;;;10.94;nan
113;BME280;45999;48.808;9.182;2024-02-15T08:33:29;98434.91;;;11.01;nan
113;BME280;45999;48.808;9.182;2024-02-15T08:35:56;98427.81;;;11.26;nan
113;BME280;45999;48.808;9.182;2024-02-15T08:38:23;98430.06;;;11.29;nan
113;BME280;45999;48.808;9.182;2024-02-15T08:40:49;98419.53;;;11.41;nan
113;BME280;45999;48.808;9.182;2024-02-15T08:43:16;98415.25;;;11.40;nan
113;BME280;45999;48.808;9.182;2024-02-15T08:45:43;98412.22;;;11.36;nan
113;BME280;45999;48.808;9.182;2024-02-15T08:48:11;98413.81;;;11.37;nan
113;BME280;45999;48.808;9.182;2024-02-15T08:50:38;98408.13;;;11.34;nan
113;BME280;45999;48.808;9.182;2024-02-15T08:53:06;98412.78;;;11.38;nan
113;BME280;45999;48.808;9.182;2024-02-15T08:55:32;98406.88;;;11.36;nan
113;BME280;45999;48.808;9.182;2024-02-15T08:58:01;98411.84;;;11.26;nan
113;BME280;45999;48.808;9.182;2024-02-15T09:00:28;98406.47;;;11.32;nan
113;BME280;45999;48.808;9.182;2024-02-15T09:02:54;98401.59;;;11.30;nan
113;BME280;45999;48.808;9.182;2024-02-15T09:05:22;98389.38;;;11.22;nan
113;BME280;45999;48.808;9.182;2024-02-15T09:07:49;98399.94;;;11.28;nan
113;BME280;45999;48.808;9.182;2024-02-15T09:10:17;98398.50;;;11.32;nan
113;BME280;45999;48.808;9.182;2024-02-15T09:12:44;98402.41;;;11.30;nan
113;BME280;45999;48.808;9.182;2024-02-15T09:15:12;98400.31;;;11.39;nan
113;BME280;45999;48.808;9.182;2024-02-15T09:17:39;98399.06;;;11.41;nan
113;BME280;45999;48.808;9.182;2024-02-15T09:20:09;98398.72;;;11.56;nan
113;BME280;45999;48.808;9.182;2024-02-15T09:22:52;98395.78;;;11.70;nan
113;BME280;45999;48.808;9.182;2024-02-15T09:25:20;98398.06;;;11.91;nan
113;BME280;45999;48.808;9.182;2024-02-15T09:27:48;98398.44;;;11.95;nan
113;BME280;45999;48.808;9.182;2024-02-15T09:30:16;98400.63;;;12.04;nan
113;BME280;45999;48.808;9.182;2024-02-15T09:32:44;98393.97;;;12.13;nan
113;BME280;45999;48.808;9.182;2024-02-15T09:35:12;98396.63;;;12.13;nan
113;BME280;45999;48.808;9.182;2024-02-15T09:37:43;98402.03;;;12.07;nan
113;BME280;45999;48.808;9.182;2024-02-15T09:40:11;98391.78;;;12.04;nan
113;BME280;45999;48.808;9.182;2024-02-15T09:42:40;98395.97;;;12.18;nan
113;BME280;45999;48.808;9.182;2024-02-15T09:45:07;98389.72;;;12.24;nan
113;BME280;45999;48.808;9.182;2024-02-15T09:47:37;98385.59;;;12.46;nan
113;BME280;45999;48.808;9.182;2024-02-15T09:50:08;98386.41;;;12.46;nan
113;BME280;45999;48.808;9.182;2024-02-15T09:52:38;98380.03;;;12.47;nan
113;BME280;45999;48.808;9.182;2024-02-15T09:55:06;98380.03;;;12.65;nan
113;BME280;45999;48.808;9.182;2024-02-15T09:57:35;98375.75;;;12.46;nan
113;BME280;45999;48.808;9.182;2024-02-15T10:00:02;98390.84;;;12.70;nan
113;BME280;45999;48.808;9.182;2024-02-15T10:02:32;98377.66;;;12.57;nan
113;BME280;45999;48.808;9.182;2024-02-15T10:04:59;98375.25;;;12.85;nan
113;BME280;45999;48.808;9.182;2024-02-15T10:07:25;98368.97;;;12.80;nan
113;BME280;45999;48.808;9.182;2024-02-15T10:09:53;98371.19;;;12.65;nan
113;BME280;45999;48.808;9.182;2024-02-15T10:12:20;98374.66;;;12.83;nan
113;BME280;45999;48.808;9.182;2024-02-15T10:14:48;98369.59;;;12.93;nan
113;BME280;45999;48.808;9.182;2024-02-15T10:17:18;98363.81;;;13.14;nan
113;BME280;45999;48.808;9.182;2024-02-15T10:19:44;98353.59;;;13.23;nan
113;BME280;45999;48.808;9.182;2024-02-15T10:22:12;98354.22;;;13.25;nan
113;BME280;45999;48.808;9.182;2024-02-15T10:24:40;98351.06;;;13.28;nan
113;BME280;45999;48.808;9.182;2024-02-15T10:27:07;98350.06;;;13.40;nan
113;BME280;45999;48.808;9.182;2024-02-15T10:29:36;98343.69;;;13.53;nan
113;BME280;45999;48.808;9.182;2024-02-15T10:32:03;98349.63;;;13.66;nan
113;BME280;45999;48.808;9.182;2024-02-15T10:34:35;98349.41;;;13.79;nan
113;BME280;45999;48.808;9.182;2024-02-15T10:37:11;98334.41;;;13.67;nan
113;BME280;45999;48.808;9.182;2024-02-15T10:39:38;98345.81;;;13.85;nan
113;BME280;45999;48.808;9.182;2024-02-15T10:42:06;98339.41;;;13.86;nan
113;BME280;45999;48.808;9.182;2024-02-15T10:44:36;98334.75;;;13.93;nan
113;BME280;45999;48.808;9.182;2024-02-15T10:47:04;98340.47;;;13.97;nan
113;BME280;45999;48.808;9.182;2024-02-15T10:49:33;98337.06;;;14.13;nan
113;BME280;45999;48.808;9.182;2024-02-15T10:52:01;98334.50;;;14.06;nan
113;BME280;45999;48.808;9.182;2024-02-15T10:55:09;98328.81;;;14.14;nan
113;BME280;45999;48.808;9.182;2024-02-15T10:57:31;98327.09;;;14.31;nan
113;BME280;45999;48.808;9.182;2024-02-15T10:59:59;98321.59;;;14.38;nan
113;BME280;45999;48.808;9.182;2024-02-15T11:02:34;98323.19;;;14.50;nan
113;BME280;45999;48.808;9.182;2024-02-15T11:05:05;98326.19;;;14.54;nan
113;BME280;45999;48.808;9.182;2024-02-15T11:07:35;98328.72;;;14.60;nan
113;BME280;45999;48.808;9.182;2024-02-15T11:10:03;98314.94;;;14.80;nan
113;BME280;45999;48.808;9.182;2024-02-15T11:12:33;98321.16;;;14.57;nan
113;BME280;45999;48.808;9.182;2024-02-15T11:15:01;98309.78;;;14.62;nan
113;BME280;45999;48.808;9.182;2024-02-15T11:20:06;98300.03;;;14.84;nan
113;BME280;45999;48.808;9.182;2024-02-15T11:22:35;98289.13;;;14.74;nan
113;BME280;45999;48.808;9.182;2024-02-15T11:25:05;98280.84;;;14.75;nan
113;BME280;45999;48.808;9.182;2024-02-15T11:27:34;98282.63;;;14.70;nan
113;BME280;45999;48.808;9.182;2024-02-15T11:30:03;98277.22;;;14.81;nan
113;BME280;45999;48.808;9.182;2024-02-15T11:35:12;98280.47;;;14.83;nan
113;BME280;45999;48.808;9.182;2024-02-15T11:40:27;98267.38;;;14.98;nan
113;BME280;45999;48.808;9.182;2024-02-15T11:42:59;98263.41;;;15.01;nan
113;BME280;45999;48.808;9.182;2024-02-15T11:45:27;98272.63;;;14.93;nan
113;BME280;45999;48.808;9.182;2024-02-15T11:47:58;98264.16;;;14.85;nan
113;BME280;45999;48.808;9.182;2024-02-15T11:50:27;98260.53;;;14.91;nan
113;BME280;45999;48.808;9.182;2024-02-15T11:53:02;98254.03;;;14.87;nan
113;BME280;45999;48.808;9.182;2024-02-15T11:55:31;98250.00;;;15.01;nan
113;BME280;45999;48.808;9.182;2024-02-15T11:57:58;98247.22;;;14.96;nan
113;BME280;45999;48.808;9.182;2024-02-15T12:00:31;98244.06;;;15.32;nan
113;BME280;45999;48.808;9.182;2024-02-15T12:03:15;98242.53;;;15.19;nan
113;BME280;45999;48.808;9.182;2024-02-15T12:06:00;98247.25;;;15.12;nan
113;BME280;45999;48.808;9.182;2024-02-15T12:08:49;98247.56;;;15.16;nan
113;BME280;45999;48.808;9.182;2024-02-15T12:11:33;98240.44;;;15.21;nan
113;BME280;45999;48.808;9.182;2024-02-15T12:14:18;98237.91;;;15.31;nan
113;BME280;45999;48.808;9.182;2024-02-15T12:17:10;98236.78;;;15.60;nan
113;BME280;45999;48.808;9.182;2024-02-15T12:19:56;98228.50;;;15.62;nan
113;BME280;45999;48.808;9.182;2024-02-15T12:22:36;98222.69;;;15.48;nan
113;BME280;45999;48.808;9.182;2024-02-15T12:25:06;98218.78;;;15.39;nan
113;BME280;45999;48.808;9.182;2024-02-15T12:27:45;98215.25;;;15.55;nan
113;BME280;45999;48.808;9.182;2024-02-15T12:30:16;98216.13;;;15.39;nan
113;BME280;45999;48.808;9.182;2024-02-15T12:32:45;98211.97;;;15.48;nan
113;BME280;45999;48.808;9.182;2024-02-15T12:35:14;98209.53;;;15.47;nan
113;BME280;45999;48.808;9.182;2024-02-15T12:37:48;98201.38;;;15.58;nan
113;BME280;45999;48.808;9.182;2024-02-15T12:40:20;98202.78;;;15.82;nan
113;BME280;45999;48.808;9.182;2024-02-15T12:42:47;98199.16;;;15.93;nan
113;BME280;45999;48.808;9.182;2024-02-15T12:45:15;98195.84;;;15.86;nan
113;BME280;45999;48.808;9.182;2024-02-15T12:47:52;98193.72;;;15.88;nan
113;BME280;45999;48.808;9.182;2024-02-15T12:50:20;98177.25;;;16.01;nan
113;BME280;45999;48.808;9.182;2024-02-15T12:52:47;98179.69;;;16.24;nan
113;BME280;45999;48.808;9.182;2024-02-15T12:55:18;98176.59;;;16.11;nan
113;BME280;45999;48.808;9.182;2024-02-15T12:57:51;98173.59;;;16.07;nan
113;BME280;45999;48.808;9.182;2024-02-15T13:00:27;98165.25;;;15.82;nan
113;BME280;45999;48.808;9.182;2024-02-15T13:02:55;98164.75;;;15.85;nan
113;BME280;45999;48.808;9.182;2024-02-15T13:05:22;98158.19;;;15.98;nan
113;BME280;45999;48.808;9.182;2024-02-15T13:07:52;98160.69;;;16.04;nan
113;BME280;45999;48.808;9.182;2024-02-15T13:10:20;98155.38;;;16.09;nan
113;BME280;45999;48.808;9.182;2024-02-15T13:12:47;98147.03;;;15.84;nan
113;BME280;45999;48.808;9.182;2024-02-15T13:15:16;98136.50;;;15.78;nan
113;BME280;45999;48.808;9.182;2024-02-15T13:17:45;98142.22;;;15.86;nan
113;BME280;45999;48.808;9.182;2024-02-15T13:20:13;98140.69;;;16.17;nan
113;BME280;45999;48.808;9.182;2024-02-15T13:22:42;98140.94;;;15.89;nan
113;BME280;45999;48.808;9.182;2024-02-15T13:25:10;98134.38;;;15.80;nan
113;BME280;45999;48.808;9.182;2024-02-15T13:27:36;98136.09;;;15.91;nan
113;BME280;45999;48.808;9.182;2024-02-15T13:30:06;98132.06;;;15.88;nan
113;BME280;45999;48.808;9.182;2024-02-15T13:32:35;98132.38;;;15.92;nan
113;BME280;45999;48.808;9.182;2024-02-15T13:35:07;98129.13;;;15.90;nan
113;BME280;45999;48.808;9.182;2024-02-15T13:37:51;98133.09;;;16.09;nan
113;BME280;45999;48.808;9.182;2024-02-15T13:40:19;98123.28;;;15.93;nan
113;BME280;45999;48.808;9.182;2024-02-15T13:42:49;98121.03;;;15.85;nan
113;BME280;45999;48.808;9.182;2024-02-15T13:45:24;98117.91;;;15.93;nan
113;BME280;45999;48.808;9.182;2024-02-15T13:47:56;98110.91;;;16.13;nan
113;BME280;45999;48.808;9.182;2024-02-15T13:50:23;98118.91;;;16.08;nan
113;BME280;45999;48.808;9.182;2024-02-15T13:52:50;98110.31;;;16.11;nan
113;BME280;45999;48.808;9.182;2024-02-15T13:55:18;98112.06;;;16.22;nan
113;BME280;45999;48.808;9.182;2024-02-15T13:57:46;98106.94;;;16.21;nan
113;BME280;45999;48.808;9.182;2024-02-15T14:00:14;98103.09;;;16.38;nan
113;BME280;45999;48.808;9.182;2024-02-15T14:02:49;98102.13;;;16.23;nan